Time;durP1;ratioP1;P1;durP2;ratioP2;P2;SDS_P1;SDS_P2;PMS_P1;PMS_P2;Temp;Humidity;BMP_temperature;BMP_pressure;BME280_temperature;BME280_humidity;BME280_pressure;Samples;Min_cycle;Max_cycle;Signal;HPM_P1;HPM_P2
2024/01/04 00:02:20;;;;;;;;;;;9.50;99.90;;;;;;2616615;54;19946;-71
2024/01/04 00:04:52;;;;;;;;;;;9.50;99.90;;;;;;2620064;54;19954;-71
2024/01/04 00:07:22;;;;;;;;;;;9.50;99.90;;;;;;2623447;39;20336;-71
2024/01/04 00:09:53;;;;;;;;;;;9.50;99.90;;;;;;2622492;39;20416;-71
2024/01/04 00:12:23;;;;;;;;;;;9.50;99.90;;;;;;2621640;54;19946;-71
2024/01/04 00:14:53;;;;;;;;;;;9.50;99.90;;;;;;2618118;54;19953;-71
2024/01/04 00:17:23;;;;;;;;;;;9.60;99.90;;;;;;2618833;54;20526;-71
2024/01/04 00:19:55;;;;;;;;;;;9.50;99.90;;;;;;2617734;54;19946;-71
2024/01/04 00:22:26;;;;;;;;;;;9.50;99.90;;;;;;2617631;47;19947;-71
2024/01/04 00:24:56;;;;;;;;;;;9.50;99.90;;;;;;2616887;47;19946;-71
2024/01/04 00:27:26;;;;;;;;;;;9.50;99.90;;;;;;2617631;47;19961;-71
2024/01/04 00:29:55;;;;;;;;;;;9.50;99.90;;;;;;2617398;54;19954;-71
2024/01/04 00:32:25;;;;;;;;;;;9.50;99.90;;;;;;2618114;47;19942;-70
2024/01/04 00:34:58;;;;;;;;;;;9.50;99.90;;;;;;2620341;39;20360;-70
2024/01/04 00:37:27;;;;;;;;;;;9.50;99.90;;;;;;2620827;47;20014;-70
2024/01/04 00:39:57;;;;;;;;;;;9.50;99.90;;;;;;2618703;54;19951;-70
2024/01/04 00:42:27;;;;;;;;;;;9.50;99.90;;;;;;2617791;46;20034;-73
2024/01/04 00:44:57;;;;;;;;;;;9.50;99.90;;;;;;2619360;54;19951;-73
2024/01/04 00:47:27;;;;;;;;;;;9.50;99.90;;;;;;2621968;47;19939;-70
2024/01/04 00:49:59;;;;;;;;;;;9.50;99.90;;;;;;2618583;54;19942;-73
2024/01/04 00:52:29;;;;;;;;;;;9.50;99.90;;;;;;2617876;39;20451;-72
2024/01/04 00:54:58;;;;;;;;;;;9.50;99.90;;;;;;2617047;54;19951;-71
2024/01/04 00:57:28;;;;;;;;;;;9.50;99.90;;;;;;2617877;54;20498;-72
2024/01/04 00:59:58;;;;;;;;;;;9.60;99.90;;;;;;2618564;31;20443;-71
2024/01/04 01:02:28;;;;;;;;;;;9.50;99.90;;;;;;2617455;54;20042;-71
2024/01/04 01:05:01;;;;;;;;;;;9.60;99.90;;;;;;2617855;54;19938;-73
2024/01/04 01:07:30;;;;;;;;;;;9.60;99.90;;;;;;2618322;54;20030;-73
2024/01/04 01:10:00;;;;;;;;;;;9.60;99.90;;;;;;2617241;54;20438;-73
2024/01/04 01:12:30;;;;;;;;;;;9.60;99.90;;;;;;2617419;54;19945;-71
2024/01/04 01:15:00;;;;;;;;;;;9.60;99.90;;;;;;2617541;54;19953;-70
2024/01/04 01:17:29;;;;;;;;;;;9.60;99.90;;;;;;2616995;46;19985;-71
2024/01/04 01:20:02;;;;;;;;;;;9.60;99.90;;;;;;2617469;47;20457;-70
2024/01/04 01:22:32;;;;;;;;;;;9.60;99.90;;;;;;2617237;54;19954;-70
2024/01/04 01:25:01;;;;;;;;;;;9.60;99.90;;;;;;2616662;47;19954;-71
2024/01/04 01:27:31;;;;;;;;;;;9.60;99.90;;;;;;2617492;49;19939;-70
2024/01/04 01:30:01;;;;;;;;;;;9.60;99.90;;;;;;2617627;31;20440;-70
2024/01/04 01:32:31;;;;;;;;;;;9.60;99.90;;;;;;2617204;54;19939;-70
2024/01/04 01:35:03;;;;;;;;;;;9.60;99.90;;;;;;2617478;47;19946;-71
2024/01/04 01:37:34;;;;;;;;;;;9.50;99.90;;;;;;2615856;54;19951;-70
2024/01/04 01:40:04;;;;;;;;;;;9.50;99.90;;;;;;2618389;54;19942;-70
2024/01/04 01:42:34;;;;;;;;;;;9.50;99.90;;;;;;2617941;54;19965;-70
2024/01/04 01:45:03;;;;;;;;;;;9.50;99.90;;;;;;2617814;54;19973;-71
2024/01/04 01:47:33;;;;;;;;;;;9.40;99.90;;;;;;2618368;54;19952;-74
2024/01/04 01:50:07;;;;;;;;;;;9.40;99.90;;;;;;2621890;54;19947;-71
2024/01/04 01:52:37;;;;;;;;;;;9.40;99.90;;;;;;2622291;54;19939;-69
2024/01/04 01:55:07;;;;;;;;;;;9.40;99.90;;;;;;2617333;54;20058;-71
2024/01/04 01:57:37;;;;;;;;;;;9.40;99.90;;;;;;2617997;54;19946;-71
2024/01/04 02:00:09;;;;;;;;;;;9.40;99.90;;;;;;2617747;47;19938;-69
2024/01/04 02:02:39;;;;;;;;;;;9.50;99.90;;;;;;2617938;47;19947;-71
2024/01/04 02:05:11;;;;;;;;;;;9.50;99.90;;;;;;2618385;54;19958;-72
2024/01/04 02:07:41;;;;;;;;;;;9.50;99.90;;;;;;2617483;54;19947;-70
2024/01/04 02:10:08;;;;;;;;;;;9.60;99.90;;;;;;2616921;54;19946;-71
2024/01/04 02:12:38;;;;;;;;;;;9.60;99.90;;;;;;2618431;54;19939;-72
2024/01/04 02:15:08;;;;;;;;;;;9.60;99.90;;;;;;2618623;47;19977;-71
2024/01/04 02:17:39;;;;;;;;;;;9.70;99.90;;;;;;2618724;54;19950;-71
2024/01/04 02:20:12;;;;;;;;;;;9.70;99.90;;;;;;2618303;54;19938;-71
2024/01/04 02:22:48;;;;;;;;;;;9.60;99.90;;;;;;2616794;54;19959;-70
2024/01/04 02:25:17;;;;;;;;;;;9.60;99.90;;;;;;2617511;54;19942;-71
2024/01/04 02:27:47;;;;;;;;;;;9.70;99.90;;;;;;2618600;54;19939;-71
2024/01/04 02:30:17;;;;;;;;;;;9.60;99.90;;;;;;2621749;47;19998;-71
2024/01/04 02:32:47;;;;;;;;;;;9.60;99.90;;;;;;2620874;39;20318;-71
2024/01/04 02:35:17;;;;;;;;;;;9.60;99.90;;;;;;2617958;54;19946;-70
2024/01/04 02:37:49;;;;;;;;;;;9.60;99.90;;;;;;2618232;39;20341;-71
2024/01/04 02:40:19;;;;;;;;;;;9.60;99.90;;;;;;2618233;54;19946;-71
2024/01/04 02:42:48;;;;;;;;;;;9.60;99.90;;;;;;2617611;54;19946;-71
2024/01/04 02:45:18;;;;;;;;;;;9.60;99.90;;;;;;2616789;47;19938;-70
2024/01/04 02:47:48;;;;;;;;;;;9.60;99.90;;;;;;2618611;54;19954;-70
2024/01/04 02:50:18;;;;;;;;;;;9.60;99.90;;;;;;2618040;47;19947;-71
2024/01/04 02:52:51;;;;;;;;;;;9.60;99.90;;;;;;2618294;54;19946;-70
2024/01/04 02:55:20;;;;;;;;;;;9.60;99.90;;;;;;2617648;54;20463;-73
2024/01/04 02:57:50;;;;;;;;;;;9.60;99.90;;;;;;2618691;46;19939;-70
2024/01/04 03:00:20;;;;;;;;;;;9.60;99.90;;;;;;2617777;54;19951;-71
2024/01/04 03:02:49;;;;;;;;;;;9.60;99.90;;;;;;2618750;39;20348;-71
2024/01/04 03:05:19;;;;;;;;;;;9.50;99.90;;;;;;2616980;47;19950;-70
2024/01/04 03:07:52;;;;;;;;;;;9.50;99.90;;;;;;2617519;54;19947;-71
2024/01/04 03:10:21;;;;;;;;;;;9.60;99.90;;;;;;2617720;54;19962;-71
2024/01/04 03:12:51;;;;;;;;;;;9.60;99.90;;;;;;2617537;49;19950;-71
2024/01/04 03:15:20;;;;;;;;;;;9.60;99.90;;;;;;2617391;54;19946;-71
2024/01/04 03:17:50;;;;;;;;;;;9.50;99.90;;;;;;2617694;54;20012;-71
2024/01/04 03:20:20;;;;;;;;;;;9.50;99.90;;;;;;2616565;51;19950;-71
2024/01/04 03:22:52;;;;;;;;;;;9.50;99.90;;;;;;2618213;54;19939;-71
2024/01/04 03:25:22;;;;;;;;;;;9.60;99.90;;;;;;2615626;54;19946;-71
2024/01/04 03:27:51;;;;;;;;;;;9.60;99.90;;;;;;2616670;54;19950;-71
2024/01/04 03:30:21;;;;;;;;;;;9.60;99.90;;;;;;2617055;54;19951;-71
2024/01/04 03:32:51;;;;;;;;;;;9.60;99.90;;;;;;2622568;47;20034;-71
2024/01/04 03:35:21;;;;;;;;;;;9.60;99.90;;;;;;2624386;39;20365;-71
2024/01/04 03:37:53;;;;;;;;;;;9.60;99.90;;;;;;2622913;54;19954;-71
2024/01/04 03:40:22;;;;;;;;;;;9.60;99.90;;;;;;2617826;54;19958;-71
2024/01/04 03:42:52;;;;;;;;;;;9.60;99.90;;;;;;2617903;47;20425;-71
2024/01/04 03:45:22;;;;;;;;;;;9.60;99.90;;;;;;2618234;54;19951;-71
2024/01/04 03:47:51;;;;;;;;;;;9.60;99.90;;;;;;2618338;54;19939;-71
2024/01/04 03:50:21;;;;;;;;;;;9.60;99.90;;;;;;2618066;47;19945;-71
2024/01/04 03:52:53;;;;;;;;;;;9.60;99.90;;;;;;2617201;54;19947;-72
2024/01/04 03:55:24;;;;;;;;;;;9.60;99.90;;;;;;2617727;54;19938;-71
2024/01/04 03:57:54;;;;;;;;;;;9.60;99.90;;;;;;2618280;54;20448;-71
2024/01/04 04:00:23;;;;;;;;;;;9.60;99.90;;;;;;2618344;54;19954;-71
2024/01/04 04:02:54;;;;;;;;;;;9.60;99.90;;;;;;2617741;49;19993;-71
2024/01/04 04:05:24;;;;;;;;;;;9.60;99.90;;;;;;2617112;54;20042;-71
2024/01/04 04:07:56;;;;;;;;;;;9.60;99.90;;;;;;2616951;47;19973;-72
2024/01/04 04:10:25;;;;;;;;;;;9.60;99.90;;;;;;2618244;47;19951;-72
2024/01/04 04:12:55;;;;;;;;;;;9.60;99.90;;;;;;2619189;54;19945;-78
2024/01/04 04:15:25;;;;;;;;;;;9.70;99.90;;;;;;2620628;54;19938;-78
2024/01/04 04:17:55;;;;;;;;;;;9.60;99.90;;;;;;2618601;54;19938;-78
2024/01/04 04:20:25;;;;;;;;;;;9.60;99.90;;;;;;2619099;54;19953;-78
2024/01/04 04:22:58;;;;;;;;;;;9.60;99.90;;;;;;2624663;47;19946;-78
2024/01/04 04:25:28;;;;;;;;;;;9.60;99.90;;;;;;2621763;54;19980;-78
2024/01/04 04:27:58;;;;;;;;;;;9.60;99.90;;;;;;2619875;46;19989;-79
2024/01/04 04:30:28;;;;;;;;;;;9.60;99.90;;;;;;2618883;47;19947;-78
2024/01/04 04:32:58;;;;;;;;;;;9.60;99.90;;;;;;2618995;54;19945;-78
2024/01/04 04:35:28;;;;;;;;;;;9.60;99.90;;;;;;2618717;49;19947;-78
2024/01/04 04:38:00;;;;;;;;;;;9.60;99.90;;;;;;2621351;54;19954;-78
2024/01/04 04:40:30;;;;;;;;;;;9.90;99.90;;;;;;2622095;47;19947;-78
2024/01/04 04:43:00;;;;;;;;;;;9.50;99.90;;;;;;2625534;47;19958;-78
2024/01/04 04:45:30;;;;;;;;;;;9.50;99.90;;;;;;2619413;47;20013;-80
2024/01/04 04:47:59;;;;;;;;;;;9.50;99.90;;;;;;2618554;54;20008;-78
2024/01/04 04:50:29;;;;;;;;;;;9.50;99.90;;;;;;2618682;47;19939;-78
2024/01/04 04:53:02;;;;;;;;;;;9.50;99.90;;;;;;2618731;54;19947;-78
2024/01/04 04:55:31;;;;;;;;;;;9.50;99.90;;;;;;2618666;47;19958;-78
2024/01/04 04:58:01;;;;;;;;;;;9.50;99.90;;;;;;2618560;54;19959;-78
2024/01/04 05:00:31;;;;;;;;;;;9.50;99.90;;;;;;2618960;47;19992;-77
2024/01/04 05:03:01;;;;;;;;;;;9.50;99.90;;;;;;2622721;47;19951;-79
2024/01/04 05:05:31;;;;;;;;;;;9.40;99.90;;;;;;2620069;47;20672;-78
2024/01/04 05:08:05;;;;;;;;;;;9.40;99.90;;;;;;2619727;47;20026;-78
2024/01/04 05:10:35;;;;;;;;;;;8.50;99.90;;;;;;2618237;47;19938;-77
2024/01/04 05:13:05;;;;;;;;;;;9.30;99.90;;;;;;2619774;47;19947;-78
2024/01/04 05:15:35;;;;;;;;;;;9.40;99.90;;;;;;2619696;46;19974;-77
2024/01/04 05:18:05;;;;;;;;;;;9.40;99.90;;;;;;2619997;47;20456;-77
2024/01/04 05:20:35;;;;;;;;;;;9.40;99.90;;;;;;2619396;39;20340;-77
2024/01/04 05:23:07;;;;;;;;;;;9.40;99.90;;;;;;2619332;47;20474;-77
2024/01/04 05:25:37;;;;;;;;;;;9.40;99.90;;;;;;2620736;54;19996;-78
2024/01/04 05:28:10;;;;;;;;;;;9.40;99.90;;;;;;2626367;46;19943;-77
2024/01/04 05:30:40;;;;;;;;;;;9.40;99.90;;;;;;2621564;49;19958;-77
2024/01/04 05:33:10;;;;;;;;;;;9.40;99.90;;;;;;2621633;39;20356;-77
2024/01/04 05:35:40;;;;;;;;;;;9.40;99.90;;;;;;2621293;48;20004;-76
2024/01/04 05:38:12;;;;;;;;;;;9.40;99.90;;;;;;2622666;47;19962;-76
2024/01/04 05:40:42;;;;;;;;;;;9.40;99.90;;;;;;2619180;51;19946;-77
2024/01/04 05:43:12;;;;;;;;;;;9.40;99.90;;;;;;2618845;47;19997;-77
2024/01/04 05:45:42;;;;;;;;;;;9.40;99.90;;;;;;2619960;54;19950;-77
2024/01/04 05:48:11;;;;;;;;;;;9.40;99.90;;;;;;2620434;47;20431;-77
2024/01/04 05:50:42;;;;;;;;;;;9.40;99.90;;;;;;2625348;39;20422;-77
2024/01/04 05:53:14;;;;;;;;;;;9.30;99.90;;;;;;2625398;50;19953;-78
2024/01/04 05:55:44;;;;;;;;;;;9.40;99.90;;;;;;2619116;47;19985;-78
2024/01/04 05:58:14;;;;;;;;;;;9.40;99.90;;;;;;2619320;47;19954;-77
2024/01/04 06:00:44;;;;;;;;;;;9.40;99.90;;;;;;2619374;54;19958;-78
2024/01/04 06:03:14;;;;;;;;;;;9.40;99.90;;;;;;2619535;54;20498;-78
2024/01/04 06:05:44;;;;;;;;;;;9.30;99.90;;;;;;2619658;47;19946;-78
2024/01/04 06:08:16;;;;;;;;;;;9.30;99.90;;;;;;2621181;47;19971;-76
2024/01/04 06:10:46;;;;;;;;;;;9.30;99.90;;;;;;2620628;54;19996;-78
2024/01/04 06:13:18;;;;;;;;;;;9.30;99.90;;;;;;2620703;47;19946;-76
2024/01/04 06:15:48;;;;;;;;;;;9.30;99.90;;;;;;2623757;54;19950;-77
2024/01/04 06:18:18;;;;;;;;;;;9.30;99.90;;;;;;2620306;47;19945;-79
2024/01/04 06:20:48;;;;;;;;;;;9.30;99.90;;;;;;2623527;54;19994;-76
2024/01/04 06:23:21;;;;;;;;;;;9.30;99.90;;;;;;2625343;54;19939;-77
2024/01/04 06:25:50;;;;;;;;;;;10.70;99.90;;;;;;2621001;46;19939;-77
2024/01/04 06:28:20;;;;;;;;;;;9.30;99.90;;;;;;2620290;47;19946;-77
2024/01/04 06:30:50;;;;;;;;;;;9.40;99.90;;;;;;2619975;54;19966;-78
2024/01/04 06:33:20;;;;;;;;;;;9.40;99.90;;;;;;2618964;54;19946;-78
2024/01/04 06:35:50;;;;;;;;;;;9.40;99.90;;;;;;2624997;47;19950;-77
2024/01/04 06:38:24;;;;;;;;;;;9.40;99.90;;;;;;2620141;51;20022;-77
2024/01/04 06:40:57;;;;;;;;;;;9.40;99.90;;;;;;2621864;47;20047;-78
2024/01/04 06:43:27;;;;;;;;;;;9.40;99.90;;;;;;2623566;46;19946;-77
2024/01/04 06:45:57;;;;;;;;;;;9.40;99.90;;;;;;2624247;54;19938;-78
2024/01/04 06:48:27;;;;;;;;;;;9.40;99.90;;;;;;2619045;47;20420;-77
2024/01/04 06:50:57;;;;;;;;;;;9.40;99.90;;;;;;2619412;54;19947;-78
2024/01/04 06:53:30;;;;;;;;;;;9.40;99.90;;;;;;2619076;54;19953;-77
2024/01/04 06:56:00;;;;;;;;;;;9.40;99.90;;;;;;2621176;31;20369;-77
2024/01/04 06:58:29;;;;;;;;;;;9.40;99.90;;;;;;2620241;46;19950;-78
2024/01/04 07:00:59;;;;;;;;;;;9.40;99.90;;;;;;2618607;54;20062;-77
2024/01/04 07:03:30;;;;;;;;;;;9.40;99.90;;;;;;2618661;47;20025;-77
2024/01/04 07:06:00;;;;;;;;;;;9.40;99.90;;;;;;2618570;47;19946;-77
2024/01/04 07:08:33;;;;;;;;;;;9.40;99.90;;;;;;2619211;54;19954;-77
2024/01/04 07:11:05;;;;;;;;;;;9.40;99.90;;;;;;2618985;54;19992;-77
2024/01/04 07:13:35;;;;;;;;;;;9.40;99.90;;;;;;2619583;46;19988;-78
2024/01/04 07:16:06;;;;;;;;;;;9.40;99.90;;;;;;2623890;54;19953;-78
2024/01/04 07:18:36;;;;;;;;;;;9.40;99.90;;;;;;2621721;54;19961;-77
2024/01/04 07:21:06;;;;;;;;;;;9.50;99.90;;;;;;2619890;54;19947;-77
2024/01/04 07:23:39;;;;;;;;;;;9.40;99.90;;;;;;2619505;54;19945;-77
2024/01/04 07:26:09;;;;;;;;;;;9.50;99.90;;;;;;2622583;54;19939;-77
2024/01/04 07:28:40;;;;;;;;;;;9.50;99.90;;;;;;2620301;54;20088;-78
2024/01/04 07:31:11;;;;;;;;;;;9.50;99.90;;;;;;2619246;54;19954;-80
2024/01/04 07:33:41;;;;;;;;;;;9.60;99.90;;;;;;2629376;54;19949;-81
2024/01/04 07:36:11;;;;;;;;;;;9.50;99.90;;;;;;2629417;47;19946;-85
2024/01/04 07:38:44;;;;;;;;;;;9.50;99.90;;;;;;2628524;54;19939;-82
2024/01/04 07:41:15;;;;;;;;;;;9.50;99.90;;;;;;2629585;47;19974;-84
2024/01/04 07:43:45;;;;;;;;;;;9.50;99.90;;;;;;2629405;51;19998;-82
2024/01/04 07:46:15;;;;;;;;;;;9.50;99.90;;;;;;2629942;54;19950;-84
2024/01/04 07:48:45;;;;;;;;;;;9.30;99.90;;;;;;2627065;54;20012;-82
2024/01/04 07:51:15;;;;;;;;;;;9.40;99.90;;;;;;2629299;54;20467;-83
2024/01/04 07:53:48;;;;;;;;;;;9.30;99.90;;;;;;2630428;46;19923;-86
2024/01/04 07:56:18;;;;;;;;;;;9.30;99.90;;;;;;2630448;54;19966;-85
2024/01/04 07:58:48;;;;;;;;;;;9.40;99.90;;;;;;2630326;47;20002;-86
2024/01/04 08:01:18;;;;;;;;;;;9.30;99.90;;;;;;2630857;47;19995;-85
2024/01/04 08:03:48;;;;;;;;;;;10.50;99.90;;;;;;2638945;39;20556;-87
2024/01/04 08:06:18;;;;;;;;;;;9.30;99.90;;;;;;2630463;46;19950;-87
2024/01/04 08:08:52;;;;;;;;;;;9.40;99.90;;;;;;2630287;47;19967;-87
2024/01/04 08:11:23;;;;;;;;;;;9.30;99.90;;;;;;2629695;47;19942;-84
2024/01/04 08:13:53;;;;;;;;;;;9.50;99.90;;;;;;2629946;47;19948;-84
2024/01/04 08:16:24;;;;;;;;;;;9.30;99.90;;;;;;2629768;47;19968;-84
2024/01/04 08:18:53;;;;;;;;;;;9.30;99.90;;;;;;2629648;54;19942;-79
2024/01/04 08:21:24;;;;;;;;;;;9.40;99.90;;;;;;2627802;47;19938;-81
2024/01/04 08:23:57;;;;;;;;;;;9.40;99.90;;;;;;2621097;47;19947;-80
2024/01/04 08:26:27;;;;;;;;;;;9.40;99.90;;;;;;2625424;54;19996;-82
2024/01/04 08:28:57;;;;;;;;;;;9.40;99.90;;;;;;2628732;47;19947;-82
2024/01/04 08:31:27;;;;;;;;;;;9.40;99.90;;;;;;2628913;54;19954;-83
2024/01/04 08:33:57;;;;;;;;;;;9.40;99.90;;;;;;2626427;47;19953;-83
2024/01/04 08:36:28;;;;;;;;;;;9.40;99.90;;;;;;2624091;47;19943;-80
2024/01/04 08:39:03;;;;;;;;;;;9.40;99.90;;;;;;2623622;46;19957;-82
2024/01/04 08:41:33;;;;;;;;;;;9.40;99.90;;;;;;2626221;47;19957;-83
2024/01/04 08:44:03;;;;;;;;;;;9.40;99.90;;;;;;2626020;47;19959;-85
2024/01/04 08:46:37;;;;;;;;;;;9.40;99.90;;;;;;2628165;54;19943;-78
2024/01/04 08:49:08;;;;;;;;;;;9.50;99.90;;;;;;2629650;47;19967;-80
2024/01/04 08:51:38;;;;;;;;;;;9.50;99.90;;;;;;2629657;54;19967;-79
2024/01/04 08:54:11;;;;;;;;;;;9.50;99.90;;;;;;2629489;54;19943;-79
2024/01/04 08:56:42;;;;;;;;;;;9.60;99.90;;;;;;2629693;47;19934;-80
2024/01/04 08:59:12;;;;;;;;;;;9.60;99.90;;;;;;2629149;47;20570;-78
2024/01/04 09:01:42;;;;;;;;;;;9.70;99.90;;;;;;2626458;54;20491;-78
2024/01/04 09:04:13;;;;;;;;;;;9.70;99.90;;;;;;2624957;47;19953;-78
2024/01/04 09:06:43;;;;;;;;;;;9.70;99.90;;;;;;2625113;46;19962;-79
2024/01/04 09:09:16;;;;;;;;;;;9.80;99.90;;;;;;2628597;47;19949;-81
2024/01/04 09:11:48;;;;;;;;;;;9.70;99.90;;;;;;2628152;54;19961;-78
2024/01/04 09:14:18;;;;;;;;;;;9.80;99.90;;;;;;2628871;54;19946;-78
2024/01/04 09:16:50;;;;;;;;;;;9.80;99.90;;;;;;2623321;47;20000;-80
2024/01/04 09:19:23;;;;;;;;;;;9.80;99.90;;;;;;2623424;47;19945;-79
2024/01/04 09:21:55;;;;;;;;;;;9.80;99.90;;;;;;2622864;47;19950;-82
2024/01/04 09:24:28;;;;;;;;;;;9.80;99.90;;;;;;2623885;47;19938;-83
2024/01/04 09:26:58;;;;;;;;;;;9.80;99.90;;;;;;2626512;47;20042;-82
2024/01/04 09:29:29;;;;;;;;;;;9.80;99.90;;;;;;2627827;47;19938;-80
2024/01/04 09:32:01;;;;;;;;;;;9.70;99.90;;;;;;2632959;39;20529;-81
2024/01/04 09:34:31;;;;;;;;;;;9.70;99.90;;;;;;2625493;54;19943;-80
2024/01/04 09:37:03;;;;;;;;;;;9.70;99.90;;;;;;2625508;47;19951;-81
2024/01/04 09:39:37;;;;;;;;;;;9.60;99.90;;;;;;2624727;47;19951;-79
2024/01/04 09:42:09;;;;;;;;;;;9.60;99.90;;;;;;2624421;47;20050;-80
2024/01/04 09:44:39;;;;;;;;;;;9.40;99.90;;;;;;2625467;47;19951;-83
2024/01/04 09:47:10;;;;;;;;;;;9.50;99.90;;;;;;2621564;39;20430;-79
2024/01/04 09:49:41;;;;;;;;;;;9.60;99.90;;;;;;2625258;47;19938;-80
2024/01/04 09:52:12;;;;;;;;;;;9.60;99.90;;;;;;2623895;47;19979;-79
2024/01/04 09:54:47;;;;;;;;;;;9.60;99.90;;;;;;2624712;47;19943;-82
2024/01/04 09:57:17;;;;;;;;;;;9.70;99.90;;;;;;2626051;47;19950;-81
2024/01/04 09:59:47;;;;;;;;;;;9.70;99.90;;;;;;2619088;47;19946;-74
2024/01/04 10:02:20;;;;;;;;;;;9.70;99.90;;;;;;2620815;46;19973;-74
2024/01/04 10:04:51;;;;;;;;;;;9.70;99.90;;;;;;2619658;54;19984;-73
2024/01/04 10:07:25;;;;;;;;;;;10.80;99.90;;;;;;2621056;54;19957;-76
2024/01/04 10:10:04;;;;;;;;;;;9.80;99.90;;;;;;2621620;47;19955;-73
2024/01/04 10:12:36;;;;;;;;;;;9.80;99.90;;;;;;2621474;54;19942;-74
2024/01/04 10:15:08;;;;;;;;;;;9.80;99.90;;;;;;2619374;54;19939;-73
2024/01/04 10:17:38;;;;;;;;;;;9.70;99.90;;;;;;2621057;47;19978;-73
2024/01/04 10:20:10;;;;;;;;;;;9.70;99.90;;;;;;2619746;47;19958;-74
2024/01/04 10:22:40;;;;;;;;;;;9.80;99.90;;;;;;2620479;47;19947;-70
2024/01/04 10:25:18;;;;;;;;;;;9.80;99.90;;;;;;2617944;54;19950;-70
2024/01/04 10:27:56;;;;;;;;;;;9.80;99.90;;;;;;2619648;54;20476;-69
2024/01/04 10:30:26;;;;;;;;;;;9.90;99.90;;;;;;2618795;54;19938;-71
2024/01/04 10:32:56;;;;;;;;;;;9.90;99.90;;;;;;2619454;46;20446;-71
2024/01/04 10:35:27;;;;;;;;;;;10.00;99.90;;;;;;2618238;39;20384;-70
2024/01/04 10:38:00;;;;;;;;;;;10.00;99.90;;;;;;2618482;54;19946;-70
2024/01/04 10:40:33;;;;;;;;;;;10.00;99.90;;;;;;2617480;47;19947;-71
2024/01/04 10:43:02;;;;;;;;;;;10.10;99.90;;;;;;2618564;54;19939;-70
2024/01/04 10:45:32;;;;;;;;;;;10.00;99.90;;;;;;2618228;46;20417;-71
2024/01/04 10:48:02;;;;;;;;;;;10.10;99.90;;;;;;2619339;47;19992;-71
2024/01/04 10:50:33;;;;;;;;;;;10.10;99.90;;;;;;2618726;39;20451;-70
2024/01/04 10:53:03;;;;;;;;;;;10.10;99.90;;;;;;2619498;54;19962;-70
2024/01/04 10:55:36;;;;;;;;;;;10.20;99.90;;;;;;2617013;47;19938;-69
2024/01/04 10:58:06;;;;;;;;;;;10.00;99.90;;;;;;2616586;54;19953;-69
2024/01/04 11:00:36;;;;;;;;;;;10.10;99.90;;;;;;2618401;47;19950;-72
2024/01/04 11:03:09;;;;;;;;;;;10.10;99.90;;;;;;2618355;47;20025;-70
2024/01/04 11:05:40;;;;;;;;;;;10.10;99.90;;;;;;2618549;54;19954;-70
2024/01/04 11:08:10;;;;;;;;;;;10.10;99.90;;;;;;2617285;54;19951;-69
2024/01/04 11:10:44;;;;;;;;;;;10.10;99.90;;;;;;2617539;54;19953;-70
2024/01/04 11:13:14;;;;;;;;;;;10.10;99.90;;;;;;2619091;47;19953;-69
2024/01/04 11:15:44;;;;;;;;;;;10.20;99.90;;;;;;2619755;54;20528;-70
2024/01/04 11:18:25;;;;;;;;;;;10.20;99.90;;;;;;2620130;54;19953;-69
2024/01/04 11:21:00;;;;;;;;;;;10.20;99.90;;;;;;2619314;46;19954;-71
2024/01/04 11:23:36;;;;;;;;;;;10.20;99.90;;;;;;2619868;54;20668;-70
2024/01/04 11:26:22;;;;;;;;;;;10.20;99.90;;;;;;2618614;47;20433;-70
2024/01/04 11:28:52;;;;;;;;;;;10.30;99.90;;;;;;2619161;54;20478;-71
2024/01/04 11:31:23;;;;;;;;;;;10.30;99.90;;;;;;2619199;47;19947;-70
2024/01/04 11:33:54;;;;;;;;;;;10.30;99.90;;;;;;2618773;54;19939;-72
2024/01/04 11:36:24;;;;;;;;;;;10.40;99.90;;;;;;2618601;54;20484;-71
2024/01/04 11:38:57;;;;;;;;;;;10.40;99.90;;;;;;2623343;49;19938;-72
2024/01/04 11:41:36;;;;;;;;;;;10.40;99.90;;;;;;2620153;47;19947;-72
2024/01/04 11:44:16;;;;;;;;;;;10.50;99.90;;;;;;2618531;47;20559;-72
2024/01/04 11:46:46;;;;;;;;;;;10.60;99.90;;;;;;2618445;47;19946;-73
2024/01/04 17:00:11;;;;;;;;;;;10.60;99.90;;;;;;2609189;46;20242;-74
2024/01/04 17:02:41;;;;;;;;;;;9.10;99.90;;;;;;2606783;47;19951;-74
2024/01/04 17:05:11;;;;;;;;;;;9.10;99.90;;;;;;2608583;39;20352;-73
2024/01/04 17:07:41;;;;;;;;;;;9.10;99.90;;;;;;2607175;47;19968;-73
2024/01/04 17:10:11;;;;;;;;;;;9.10;99.90;;;;;;2615006;47;19953;-75
2024/01/04 17:12:46;;;;;;;;;;;9.20;99.90;;;;;;2620600;54;19953;-75
2024/01/04 17:15:19;;;;;;;;;;;9.20;99.90;;;;;;2619909;54;20026;-74
2024/01/04 17:17:49;;;;;;;;;;;9.20;99.90;;;;;;2616242;47;19950;-71
2024/01/04 17:20:19;;;;;;;;;;;9.20;99.90;;;;;;2617028;54;19939;-72
2024/01/04 17:22:48;;;;;;;;;;;9.00;99.90;;;;;;2616889;47;20092;-72
2024/01/04 17:25:19;;;;;;;;;;;9.20;99.90;;;;;;2617593;54;19953;-73
2024/01/04 17:27:48;;;;;;;;;;;9.20;99.90;;;;;;2619375;54;19945;-73
2024/01/04 17:30:21;;;;;;;;;;;9.20;99.90;;;;;;2617490;47;19973;-73
2024/01/04 17:32:53;;;;;;;;;;;9.20;99.90;;;;;;2618078;54;20508;-73
2024/01/04 17:35:23;;;;;;;;;;;9.20;99.90;;;;;;2616404;54;19950;-73
2024/01/04 17:37:52;;;;;;;;;;;9.20;99.90;;;;;;2616940;54;19954;-72
2024/01/04 17:40:24;;;;;;;;;;;9.20;99.90;;;;;;2616827;54;19954;-73
2024/01/04 17:42:54;;;;;;;;;;;9.10;99.90;;;;;;2617601;47;19939;-73
2024/01/04 17:45:26;;;;;;;;;;;9.10;99.90;;;;;;2616539;54;19945;-72
2024/01/04 17:47:56;;;;;;;;;;;9.00;99.90;;;;;;2616470;47;19960;-72
2024/01/04 17:50:26;;;;;;;;;;;9.00;99.90;;;;;;2617353;47;19947;-71
2024/01/04 17:52:55;;;;;;;;;;;8.90;99.90;;;;;;2620394;54;19992;-73
2024/01/04 17:55:25;;;;;;;;;;;8.90;99.90;;;;;;2619946;54;19950;-72
2024/01/04 17:57:55;;;;;;;;;;;8.80;99.90;;;;;;2619567;54;19943;-72
2024/01/04 18:00:29;;;;;;;;;;;8.80;99.90;;;;;;2619691;47;19948;-72
2024/01/04 18:03:00;;;;;;;;;;;8.70;99.90;;;;;;2620455;54;19946;-72
2024/01/04 18:05:31;;;;;;;;;;;8.70;99.90;;;;;;2619830;39;20227;-72
2024/01/04 18:08:01;;;;;;;;;;;8.70;99.90;;;;;;2617531;54;19939;-72
2024/01/04 18:10:31;;;;;;;;;;;8.70;99.90;;;;;;2616814;54;19946;-72
2024/01/04 18:13:01;;;;;;;;;;;8.80;99.90;;;;;;2616562;47;19947;-72
2024/01/04 18:15:33;;;;;;;;;;;8.60;99.90;;;;;;2616862;54;20070;-71
2024/01/04 18:18:03;;;;;;;;;;;8.50;99.90;;;;;;2616666;47;20016;-71
2024/01/04 18:20:33;;;;;;;;;;;8.50;99.90;;;;;;2616957;54;19975;-72
2024/01/04 18:23:03;;;;;;;;;;;8.40;99.90;;;;;;2617809;54;19965;-71
2024/01/04 18:25:33;;;;;;;;;;;8.40;99.90;;;;;;2617240;54;19939;-71
2024/01/04 18:28:03;;;;;;;;;;;8.40;99.90;;;;;;2617705;47;19960;-72
2024/01/04 18:30:35;;;;;;;;;;;8.40;99.90;;;;;;2617539;47;20057;-71
2024/01/04 18:33:07;;;;;;;;;;;8.30;99.90;;;;;;2617555;39;20344;-72
2024/01/04 18:35:39;;;;;;;;;;;8.30;99.90;;;;;;2618066;47;19947;-73
2024/01/04 18:38:09;;;;;;;;;;;8.30;99.90;;;;;;2616856;47;19950;-72
2024/01/04 18:40:39;;;;;;;;;;;8.30;99.90;;;;;;2617639;54;19947;-71
2024/01/04 18:43:09;;;;;;;;;;;8.30;99.90;;;;;;2618072;54;20061;-72
2024/01/04 18:45:41;;;;;;;;;;;8.30;99.90;;;;;;2617316;54;19947;-71
2024/01/04 18:48:12;;;;;;;;;;;8.30;99.90;;;;;;2617266;47;19947;-70
2024/01/04 18:50:42;;;;;;;;;;;8.30;99.90;;;;;;2617617;54;20464;-72
2024/01/04 18:53:12;;;;;;;;;;;8.20;99.90;;;;;;2618208;54;19954;-72
2024/01/04 18:55:42;;;;;;;;;;;8.20;99.90;;;;;;2617534;54;19946;-72
2024/01/04 18:58:11;;;;;;;;;;;8.10;99.90;;;;;;2619141;47;19954;-71
2024/01/04 19:00:43;;;;;;;;;;;8.10;99.90;;;;;;2618272;46;19955;-72
2024/01/04 19:03:13;;;;;;;;;;;8.00;99.90;;;;;;2621534;54;20794;-72
2024/01/04 19:05:43;;;;;;;;;;;8.00;99.90;;;;;;2620574;54;19946;-72
2024/01/04 19:08:13;;;;;;;;;;;8.00;99.90;;;;;;2619014;54;19953;-72
2024/01/04 19:10:42;;;;;;;;;;;7.90;99.90;;;;;;2618118;47;19973;-72
2024/01/04 19:13:12;;;;;;;;;;;7.70;99.90;;;;;;2618563;39;20383;-71
2024/01/04 19:15:44;;;;;;;;;;;7.70;99.90;;;;;;2617500;54;19946;-73
2024/01/04 19:18:27;;;;;;;;;;;7.60;99.90;;;;;;2617186;51;19938;-70
2024/01/04 19:20:57;;;;;;;;;;;7.70;99.90;;;;;;2617473;54;19947;-72
2024/01/04 19:23:27;;;;;;;;;;;7.70;99.90;;;;;;2618207;47;19943;-72
2024/01/04 19:25:58;;;;;;;;;;;7.70;99.90;;;;;;2615592;54;19946;-72
2024/01/04 19:28:28;;;;;;;;;;;7.70;99.90;;;;;;2616981;54;19953;-72
2024/01/04 19:31:00;;;;;;;;;;;7.70;99.90;;;;;;2617838;46;19961;-72
2024/01/04 19:33:30;;;;;;;;;;;7.80;99.90;;;;;;2617366;47;19953;-71
2024/01/04 19:36:01;;;;;;;;;;;7.80;99.90;;;;;;2617678;47;19946;-69
2024/01/04 19:38:31;;;;;;;;;;;7.80;99.90;;;;;;2619275;47;19947;-71
2024/01/04 19:41:00;;;;;;;;;;;7.80;99.90;;;;;;2617566;54;19950;-72
2024/01/04 19:43:30;;;;;;;;;;;7.80;99.90;;;;;;2617601;54;20437;-73
2024/01/04 19:46:06;;;;;;;;;;;7.80;99.90;;;;;;2617046;46;19953;-73
2024/01/04 19:48:39;;;;;;;;;;;7.80;99.90;;;;;;2617668;47;19950;-71
2024/01/04 19:51:10;;;;;;;;;;;7.80;99.90;;;;;;2617802;54;19946;-72
2024/01/04 19:53:39;;;;;;;;;;;7.80;99.90;;;;;;2618727;47;19950;-72
2024/01/04 19:56:09;;;;;;;;;;;7.90;99.90;;;;;;2617705;54;19942;-73
2024/01/04 19:58:41;;;;;;;;;;;7.80;99.90;;;;;;2618298;47;19957;-73
2024/01/04 20:01:13;;;;;;;;;;;7.80;99.90;;;;;;2618541;47;19977;-72